Hays, KS

2:55 AM CST on December 07, 2016 (GMT -0600)
Hays Regional

Weather History for KHYS - November, 2011

Change the Weather History Date:

Sunday, November 13, 2011

  Actual Average Record
Temperature  
Mean Temperature 46 °F -  
Max Temperature 60 °F 53 °F 78 °F (1999)
Min Temperature 33 °F 30 °F 8 °F (2014)
Degree Days  
Heating Degree Days 18    
Moisture  
Dew Point 27 °F    
Average Humidity 44    
Maximum Humidity 66    
Minimum Humidity 25    
Precipitation  
Precipitation 0.00 in - - ()
Sea Level Pressure  
Sea Level Pressure 29.56 in    
Wind  
Wind Speed 11 mph (WNW)    
Max Wind Speed 23 mph    
Max Gust Speed 26 mph    
Visibility 10 miles    
Events      
Averages and records for this station are not official NWS values.
T = Trace of Precipitation, MM = Missing Value Source: NWS Daily Summary

Daily Weather History Graph

Daily Weather History Graph

Search for Another Location

Airport or City:

Trip Planner

Search our weather history database for the weather conditions in past years. The results will help you decide how hot, cold, wet, or windy it might be!

Date:

Astronomy

Nov. 13, 2011 Rise Set
Actual Time 7:17 AM CST 5:25 PM CST
Civil Twilight 6:48 AM CST 5:53 PM CST
Nautical Twilight 6:16 AM CST 6:25 PM CST
Astronomical Twilight 5:45 AM CST 6:56 PM CST
Moon 7:36 PM CST (11/13) 9:50 AM CST (11/13)
Length of Visible Light 11h 04m
Length of Day
10h 07m
Waning Gibbous, 92% of the Moon is Illuminated
Nov 13
Waning Gibbous
Nov 18
Last Quarter
Nov 25
New
Dec 2
First Quarter
Dec 10
Full

Hourly Weather History & Observations

Time (CST) Temp. Windchill Dew Point Humidity Pressure Visibility Wind Dir Wind Speed Gust Speed Precip Events Conditions
12:35 AM 48.2 °F - 32.0 °F 54% 29.38 in 10.0 mi West 10.4 mph - N/A   Clear
12:55 AM 53.6 °F - 33.8 °F 47% 29.38 in 10.0 mi WSW 19.6 mph 24.2 mph N/A   Clear
1:15 AM 55.4 °F - 32.0 °F 41% 29.37 in 10.0 mi WSW 20.7 mph 26.5 mph N/A   Clear
1:35 AM 57.2 °F - 32.0 °F 38% 29.38 in 10.0 mi West 23.0 mph - N/A   Clear
2:15 AM 55.4 °F - 30.2 °F 38% 29.43 in 10.0 mi WNW 19.6 mph 25.3 mph N/A   Clear
2:35 AM 53.6 °F - 30.2 °F 41% 29.45 in 10.0 mi WNW 18.4 mph 24.2 mph N/A   Clear
2:55 AM 51.8 °F - 30.2 °F 44% 29.46 in 10.0 mi WNW 15.0 mph - N/A   Clear
3:15 AM 50.0 °F - 28.4 °F 43% 29.48 in 10.0 mi WNW 12.7 mph - N/A   Clear
3:35 AM 48.2 °F - 30.2 °F 50% 29.48 in 10.0 mi WNW 9.2 mph - N/A   Clear
3:55 AM 48.2 °F - 30.2 °F 50% 29.50 in 10.0 mi West 6.9 mph - N/A   Clear
4:15 AM 44.6 °F 39.7 °F 28.4 °F 53% 29.50 in 10.0 mi West 9.2 mph - N/A   Clear
4:35 AM 44.6 °F 41.4 °F 28.4 °F 53% 29.51 in 10.0 mi WSW 5.8 mph - N/A   Clear
4:55 AM 42.8 °F 39.3 °F 28.4 °F 57% 29.53 in 10.0 mi WSW 5.8 mph - N/A   Clear
5:15 AM 41.0 °F 35.8 °F 26.6 °F 57% 29.53 in 10.0 mi WNW 8.1 mph - N/A   Clear
5:35 AM 39.2 °F 35.0 °F 24.8 °F 56% 29.53 in 10.0 mi West 5.8 mph - N/A   Clear
5:55 AM 39.2 °F 34.2 °F 24.8 °F 56% 29.53 in 10.0 mi West 6.9 mph - N/A   Clear
6:15 AM 37.4 °F 31.4 °F 24.8 °F 60% 29.53 in 10.0 mi West 8.1 mph - N/A   Clear
6:55 AM 35.6 °F 29.9 °F 23.0 °F 60% 29.54 in 10.0 mi West 6.9 mph - N/A   Clear
7:15 AM 33.8 °F 29.6 °F 21.2 °F 60% 29.55 in 10.0 mi West 4.6 mph - N/A   Clear
7:35 AM 33.8 °F 27.7 °F 21.2 °F 60% 29.58 in 10.0 mi WSW 6.9 mph - N/A   Clear
7:55 AM 37.4 °F 31.4 °F 23.0 °F 56% 29.60 in 10.0 mi West 8.1 mph - N/A   Clear
8:35 AM 41.0 °F 35.8 °F 24.8 °F 53% 29.61 in 10.0 mi WNW 8.1 mph - N/A   Clear
8:55 AM 44.6 °F 39.2 °F 24.8 °F 46% 29.61 in 10.0 mi WNW 10.4 mph - N/A   Clear
9:15 AM 48.2 °F - 21.2 °F 34% 29.61 in 10.0 mi NW 9.2 mph - N/A   Clear
9:35 AM 50.0 °F - 23.0 °F 35% 29.62 in 10.0 mi NW 9.2 mph - N/A   Clear
9:55 AM 51.8 °F - 24.8 °F 35% 29.63 in 10.0 mi NNW 13.8 mph 17.3 mph N/A   Clear
10:15 AM 51.8 °F - 21.2 °F 30% 29.62 in 10.0 mi NNW 10.4 mph - N/A   Clear
10:35 AM 53.6 °F - 21.2 °F 28% 29.64 in 10.0 mi NNW 8.1 mph - N/A   Clear
10:55 AM 53.6 °F - 23.0 °F 30% 29.64 in 10.0 mi NNW 12.7 mph - N/A   Clear
11:15 AM 55.4 °F - 24.8 °F 31% 29.64 in 10.0 mi NNW 11.5 mph - N/A   Clear
11:35 AM 55.4 °F - 24.8 °F 31% 29.64 in 10.0 mi NNW 9.2 mph - N/A   Clear
11:55 AM 55.4 °F - 24.8 °F 31% 29.63 in 10.0 mi NNW 8.1 mph - N/A   Clear
12:15 PM 57.2 °F - 24.8 °F 29% 29.63 in 10.0 mi NNW 9.2 mph - N/A   Clear
12:35 PM 57.2 °F - 24.8 °F 29% 29.63 in 10.0 mi NNW 9.2 mph - N/A   Clear
12:55 PM 57.2 °F - 24.8 °F 29% 29.62 in 10.0 mi North 5.8 mph - N/A   Clear
1:15 PM 59.0 °F - 24.8 °F 27% 29.61 in 10.0 mi North 6.9 mph - N/A   Clear
1:35 PM 57.2 °F - 24.8 °F 29% 29.61 in 10.0 mi NW 3.5 mph - N/A   Clear
1:55 PM 59.0 °F - 24.8 °F 27% 29.60 in 10.0 mi North 5.8 mph - N/A   Clear
2:15 PM 59.0 °F - 24.8 °F 27% 29.60 in 10.0 mi WNW 3.5 mph - N/A   Clear
2:35 PM 60.8 °F - 26.6 °F 27% 29.59 in 10.0 mi ESE 3.5 mph - N/A   Clear
2:55 PM 60.8 °F - 24.8 °F 25% 29.60 in 10.0 mi Calm Calm - N/A   Clear
3:15 PM 59.0 °F - 24.8 °F 27% 29.59 in 10.0 mi SE 4.6 mph - N/A   Clear
3:35 PM 57.2 °F - 26.6 °F 31% 29.60 in 10.0 mi SE 5.8 mph - N/A   Clear
3:55 PM 57.2 °F - 26.6 °F 31% 29.59 in 10.0 mi SE 5.8 mph - N/A   Clear
4:15 PM 55.4 °F - 28.4 °F 36% 29.60 in 10.0 mi SSE 5.8 mph - N/A   Clear
4:35 PM 53.6 °F - 30.2 °F 41% 29.58 in 10.0 mi SSE 6.9 mph - N/A   Clear
4:55 PM 51.8 °F - 30.2 °F 44% 29.59 in 10.0 mi SSE 8.1 mph - N/A   Clear
5:15 PM 51.8 °F - 30.2 °F 44% 29.59 in 10.0 mi SSE 9.2 mph - N/A   Clear
5:35 PM 50.0 °F - 30.2 °F 47% 29.60 in 10.0 mi SSE 6.9 mph - N/A   Clear
5:55 PM 48.2 °F - 30.2 °F 50% 29.58 in 10.0 mi SE 8.1 mph - N/A   Clear
6:15 PM 44.6 °F 40.7 °F 30.2 °F 57% 29.59 in 10.0 mi SSE 6.9 mph - N/A   Clear
6:35 PM 44.6 °F 40.7 °F 30.2 °F 57% 29.59 in 10.0 mi SE 6.9 mph - N/A   Clear
6:55 PM 44.6 °F 40.7 °F 30.2 °F 57% 29.59 in 10.0 mi SSE 6.9 mph - N/A   Clear
7:15 PM 44.6 °F 40.7 °F 30.2 °F 57% 29.58 in 10.0 mi ESE 6.9 mph - N/A   Clear
7:35 PM 42.8 °F 39.3 °F 30.2 °F 61% 29.58 in 10.0 mi ENE 5.8 mph - N/A   Clear
7:55 PM 42.8 °F 39.3 °F 32.0 °F 66% 29.57 in 10.0 mi East 5.8 mph - N/A   Clear
8:15 PM 42.8 °F 40.1 °F 30.2 °F 61% 29.57 in 10.0 mi East 4.6 mph - N/A   Clear
8:35 PM 42.8 °F 39.3 °F 30.2 °F 61% 29.56 in 10.0 mi East 5.8 mph - N/A   Clear
9:15 PM 42.8 °F 41.1 °F 30.2 °F 61% 29.55 in 10.0 mi East 3.5 mph - N/A   Clear
9:35 PM 42.8 °F - 30.2 °F 61% 29.55 in 10.0 mi Calm Calm - N/A   Clear
9:55 PM 41.0 °F 39.0 °F 30.2 °F 65% 29.55 in 10.0 mi ENE 3.5 mph - N/A   Clear
10:15 PM 39.2 °F 34.2 °F 30.2 °F 70% 29.56 in 10.0 mi NNE 6.9 mph - N/A   Clear
10:35 PM 41.0 °F 35.2 °F 30.2 °F 65% 29.57 in 10.0 mi North 9.2 mph - N/A   Clear
10:55 PM 39.2 °F 33.6 °F 30.2 °F 70% 29.56 in 10.0 mi NNE 8.1 mph - N/A   Clear
11:15 PM 41.0 °F 36.4 °F 30.2 °F 65% 29.56 in 10.0 mi NNE 6.9 mph - N/A   Clear
11:35 PM 37.4 °F 33.8 °F 30.2 °F 75% 29.55 in 10.0 mi ENE 4.6 mph - N/A   Clear
11:55 PM 39.2 °F 37.0 °F 30.2 °F 70% 29.56 in 10.0 mi North 3.5 mph - N/A   Clear